createdAt,value
2023-01-26T00:00:13.518Z,16.40
2023-01-26T00:03:01.354Z,11.03
2023-01-26T00:05:49.970Z,16.73
2023-01-26T00:08:38.379Z,16.50
2023-01-26T00:11:27.605Z,13.17
2023-01-26T00:14:15.282Z,16.60
2023-01-26T00:17:02.645Z,15.63
2023-01-26T00:19:50.058Z,16.33
2023-01-26T00:22:38.786Z,14.67
2023-01-26T00:25:26.523Z,17.87
2023-01-26T00:28:13.727Z,18.57
2023-01-26T00:31:04.509Z,12.80
2023-01-26T00:33:52.209Z,13.70
2023-01-26T00:36:39.499Z,11.97
2023-01-26T00:39:28.149Z,14.83
2023-01-26T00:42:16.024Z,16.53
2023-01-26T00:45:03.334Z,14.60
2023-01-26T00:47:51.603Z,10.63
2023-01-26T00:50:39.051Z,11.83
2023-01-26T00:53:26.393Z,13.83
2023-01-26T00:56:15.719Z,13.37
2023-01-26T00:59:03.163Z,14.57
2023-01-26T01:01:50.964Z,14.37
2023-01-26T01:04:38.268Z,13.07
2023-01-26T01:07:25.852Z,15.67
2023-01-26T01:10:13.656Z,15.10
2023-01-26T01:13:02.521Z,14.17
2023-01-26T01:15:50.238Z,12.13
2023-01-26T01:18:37.778Z,14.10
2023-01-26T01:21:26.168Z,15.67
2023-01-26T01:24:14.219Z,19.67
2023-01-26T01:27:01.499Z,17.67
2023-01-26T01:29:51.272Z,18.30
2023-01-26T01:32:39.906Z,15.50
2023-01-26T01:35:27.651Z,13.60
2023-01-26T01:38:14.874Z,16.03
2023-01-26T01:41:02.511Z,17.80
2023-01-26T01:43:49.921Z,18.27
2023-01-26T01:46:38.819Z,12.60
2023-01-26T01:49:28.265Z,13.20
2023-01-26T01:52:17.972Z,14.10
2023-01-26T01:55:07.466Z,13.23
2023-01-26T01:57:58.724Z,14.30
2023-01-26T02:00:46.431Z,16.10
2023-01-26T02:03:36.395Z,10.33
2023-01-26T02:06:25.182Z,18.23
2023-01-26T02:09:36.028Z,16.47
2023-01-26T02:12:33.010Z,14.27
2023-01-26T02:15:20.379Z,16.37
2023-01-26T02:18:10.937Z,18.10
2023-01-26T02:21:01.401Z,17.00
2023-01-26T02:23:52.746Z,15.73
2023-01-26T02:26:42.258Z,18.00
2023-01-26T02:29:30.009Z,17.63
2023-01-26T02:32:17.659Z,17.50
2023-01-26T02:35:05.877Z,19.50
2023-01-26T02:37:53.422Z,20.63
2023-01-26T02:40:43.617Z,17.57
2023-01-26T02:43:32.062Z,15.53
2023-01-26T02:46:19.485Z,16.03
2023-01-26T02:49:25.291Z,17.13
2023-01-26T02:52:12.630Z,17.17
2023-01-26T02:55:18.429Z,18.03
2023-01-26T02:58:07.607Z,14.77
2023-01-26T03:00:56.556Z,18.20
2023-01-26T03:03:45.149Z,16.40
2023-01-26T03:06:34.615Z,16.17
2023-01-26T03:09:22.017Z,16.47
2023-01-26T03:12:09.427Z,13.43
2023-01-26T03:15:14.701Z,16.57
2023-01-26T03:18:30.851Z,16.83
2023-01-26T03:21:36.146Z,20.20
2023-01-26T03:24:41.636Z,14.53
2023-01-26T03:27:29.376Z,17.13
2023-01-26T03:30:23.494Z,16.83
2023-01-26T03:33:12.877Z,14.57
2023-01-26T03:36:00.621Z,18.73
2023-01-26T03:38:48.076Z,18.43
2023-01-26T03:41:53.181Z,16.20
2023-01-26T03:44:58.409Z,21.43
2023-01-26T03:48:03.425Z,16.47
2023-01-26T03:51:09.736Z,19.27
2023-01-26T03:54:14.880Z,17.53
2023-01-26T03:57:02.131Z,19.23
2023-01-26T03:59:49.325Z,17.00
2023-01-26T04:02:58.125Z,18.60
2023-01-26T04:06:15.441Z,13.87
2023-01-26T04:09:06.410Z,18.57
2023-01-26T04:11:54.023Z,19.80
2023-01-26T04:14:59.114Z,17.70
2023-01-26T04:18:05.413Z,14.37
2023-01-26T04:21:10.619Z,19.17
2023-01-26T04:24:01.624Z,17.40
2023-01-26T04:26:51.101Z,17.67
2023-01-26T04:29:43.871Z,17.93
2023-01-26T04:32:31.330Z,16.67
2023-01-26T04:35:18.700Z,18.00
2023-01-26T04:38:08.155Z,17.97
2023-01-26T04:40:55.532Z,13.23
2023-01-26T04:43:44.876Z,15.67
2023-01-26T04:46:33.223Z,18.13
2023-01-26T04:49:21.924Z,15.00
2023-01-26T04:52:09.318Z,15.93
2023-01-26T04:54:57.414Z,18.77
2023-01-26T04:57:45.215Z,17.77
2023-01-26T05:00:33.843Z,18.73
2023-01-26T05:03:22.811Z,15.10
2023-01-26T05:06:10.298Z,14.13
2023-01-26T05:08:58.206Z,12.70
2023-01-26T05:11:46.801Z,14.63
2023-01-26T05:14:53.095Z,15.70
2023-01-26T05:18:04.452Z,14.47
2023-01-26T05:21:12.321Z,17.40
2023-01-26T05:24:03.472Z,18.10
2023-01-26T05:27:24.759Z,18.30
2023-01-26T05:30:16.519Z,14.87
2023-01-26T05:33:05.884Z,15.27
2023-01-26T05:35:54.787Z,20.70
2023-01-26T05:38:42.068Z,16.13
2023-01-26T05:41:30.494Z,23.20
2023-01-26T05:44:49.376Z,19.87
2023-01-26T05:47:37.110Z,22.60
2023-01-26T05:50:25.846Z,15.07
2023-01-26T05:53:33.699Z,14.60
2023-01-26T05:56:21.126Z,17.23
2023-01-26T05:59:15.131Z,14.33
2023-01-26T06:02:03.246Z,16.27
2023-01-26T06:04:50.610Z,13.87
2023-01-26T06:07:40.347Z,14.30
2023-01-26T06:10:41.198Z,15.67
2023-01-26T06:13:49.337Z,12.27
2023-01-26T06:16:44.114Z,13.17
2023-01-26T06:19:31.846Z,12.57
2023-01-26T06:22:21.792Z,12.93
2023-01-26T06:25:12.545Z,13.67
2023-01-26T06:28:00.808Z,13.00
2023-01-26T06:30:49.277Z,14.00
2023-01-26T06:33:38.168Z,12.67
2023-01-26T06:36:28.946Z,13.90
2023-01-26T06:39:18.188Z,14.30
2023-01-26T06:42:07.363Z,15.43
2023-01-26T06:44:54.741Z,12.47
2023-01-26T06:47:46.458Z,14.33
2023-01-26T06:50:35.080Z,12.17
2023-01-26T06:53:27.588Z,15.27
2023-01-26T06:56:36.992Z,14.87
2023-01-26T06:59:38.247Z,15.27
2023-01-26T07:02:44.429Z,13.93
2023-01-26T07:05:32.307Z,14.33
2023-01-26T07:08:19.918Z,13.77
2023-01-26T07:11:09.273Z,14.90
2023-01-26T07:13:56.705Z,14.00
2023-01-26T07:16:45.496Z,15.63
2023-01-26T07:19:33.877Z,11.60
2023-01-26T07:22:21.331Z,11.70
2023-01-26T07:25:09.290Z,14.03
2023-01-26T07:27:57.462Z,14.07
2023-01-26T07:30:45.173Z,11.33
2023-01-26T07:33:34.469Z,12.07
2023-01-26T07:36:22.342Z,10.97
2023-01-26T07:39:09.955Z,11.83
2023-01-26T07:41:57.749Z,10.00
2023-01-26T07:45:01.818Z,10.80
2023-01-26T07:47:49.266Z,11.37
2023-01-26T07:50:37.930Z,11.87
2023-01-26T07:53:27.587Z,13.70
2023-01-26T07:56:15.929Z,10.73
2023-01-26T07:59:03.949Z,12.47
2023-01-26T08:01:51.765Z,11.87
2023-01-26T08:04:39.209Z,9.73
2023-01-26T08:07:27.897Z,10.53
2023-01-26T08:10:15.669Z,10.27
2023-01-26T08:13:03.366Z,12.87
2023-01-26T08:15:50.831Z,11.30
2023-01-26T08:18:38.454Z,9.50
2023-01-26T08:21:25.803Z,13.13
2023-01-26T08:24:14.769Z,10.33
2023-01-26T08:27:02.028Z,9.87
2023-01-26T08:29:49.399Z,12.37
2023-01-26T08:32:36.793Z,10.50
2023-01-26T08:35:24.170Z,11.17
2023-01-26T08:38:11.481Z,10.40
2023-01-26T08:41:00.571Z,14.00
2023-01-26T08:43:48.200Z,14.40
2023-01-26T08:46:35.598Z,11.63
2023-01-26T08:49:22.968Z,11.57
2023-01-26T08:52:10.360Z,10.20
2023-01-26T08:55:00.507Z,11.40
2023-01-26T08:57:54.982Z,13.73
2023-01-26T09:00:42.489Z,13.83
2023-01-26T09:03:29.900Z,10.17
2023-01-26T09:06:17.336Z,11.57
2023-01-26T09:09:04.893Z,14.20
2023-01-26T09:11:52.311Z,12.53
2023-01-26T09:14:41.179Z,10.53
2023-01-26T09:17:28.560Z,10.80
2023-01-26T09:20:15.951Z,11.30
2023-01-26T09:23:03.539Z,11.10
2023-01-26T09:25:57.815Z,16.40
2023-01-26T09:28:53.991Z,10.17
2023-01-26T09:31:52.348Z,10.67
2023-01-26T09:34:39.899Z,9.93
2023-01-26T09:37:27.488Z,17.27
2023-01-26T09:40:18.220Z,11.33
2023-01-26T09:43:09.933Z,10.20
2023-01-26T09:46:02.474Z,11.10
2023-01-26T09:48:57.453Z,9.93
2023-01-26T09:51:46.513Z,18.87
2023-01-26T09:54:36.185Z,8.13
2023-01-26T09:57:26.606Z,10.20
2023-01-26T10:00:20.407Z,10.33
2023-01-26T10:03:13.958Z,9.53
2023-01-26T10:06:05.537Z,8.13
2023-01-26T10:09:16.619Z,8.60
2023-01-26T10:12:06.525Z,9.67
2023-01-26T10:14:57.492Z,12.03
2023-01-26T10:17:47.436Z,8.07
2023-01-26T10:20:35.893Z,8.93
2023-01-26T10:23:26.767Z,9.47
2023-01-26T10:26:14.870Z,8.50
2023-01-26T10:29:03.227Z,6.60
2023-01-26T10:31:50.698Z,9.53
2023-01-26T10:34:41.039Z,6.77
2023-01-26T10:37:30.728Z,7.23
2023-01-26T10:40:20.400Z,11.87
2023-01-26T10:43:18.812Z,9.67
2023-01-26T10:46:06.302Z,11.43
2023-01-26T10:48:54.898Z,9.47
2023-01-26T10:51:44.443Z,10.00
2023-01-26T10:54:33.621Z,9.27
2023-01-26T10:57:27.891Z,9.90
2023-01-26T11:00:24.093Z,8.57
2023-01-26T11:03:18.863Z,11.53
2023-01-26T11:10:57.711Z,10.23
2023-01-26T11:13:46.413Z,13.57
2023-01-26T11:16:34.295Z,9.37
2023-01-26T11:19:29.534Z,9.93
2023-01-26T11:22:19.611Z,11.70
2023-01-26T11:25:13.191Z,11.33
2023-01-26T11:28:13.510Z,9.23
2023-01-26T11:31:16.506Z,13.40
2023-01-26T11:34:08.483Z,12.53
2023-01-26T11:41:52.509Z,12.70
2023-01-26T11:44:49.528Z,11.30
2023-01-26T11:47:43.280Z,13.53
2023-01-26T11:50:35.037Z,12.47
2023-01-26T11:53:40.557Z,13.10
2023-01-26T11:56:35.420Z,13.93
2023-01-26T11:59:27.000Z,14.00
2023-01-26T12:02:27.817Z,11.80
2023-01-26T12:05:19.484Z,11.90
2023-01-26T12:08:09.290Z,11.90
2023-01-26T12:11:20.906Z,13.27
2023-01-26T12:14:18.932Z,14.37
2023-01-26T12:17:22.506Z,12.63
2023-01-26T12:20:21.723Z,11.47
2023-01-26T12:23:14.893Z,12.77
2023-01-26T12:26:04.736Z,12.17
2023-01-26T12:28:57.525Z,14.93
2023-01-26T12:31:47.578Z,14.40
2023-01-26T12:34:35.481Z,10.67
2023-01-26T12:37:37.169Z,13.23
2023-01-26T12:40:32.894Z,12.37
2023-01-26T12:43:25.378Z,10.30
2023-01-26T12:46:13.103Z,11.20
2023-01-26T12:49:03.877Z,14.70
2023-01-26T12:51:53.132Z,12.40
2023-01-26T12:54:45.538Z,11.50
2023-01-26T12:57:36.833Z,12.77
2023-01-26T13:00:25.787Z,9.43
2023-01-26T13:03:18.214Z,11.33
2023-01-26T13:06:19.983Z,9.20
2023-01-26T13:09:20.700Z,12.37
2023-01-26T13:12:29.403Z,14.73
2023-01-26T13:15:19.579Z,9.53
2023-01-26T13:18:08.733Z,10.17
2023-01-26T13:20:56.155Z,11.73
2023-01-26T13:23:44.650Z,10.30
2023-01-26T13:26:50.613Z,9.17
2023-01-26T13:29:56.553Z,10.93
2023-01-26T13:32:55.245Z,10.80
2023-01-26T13:35:42.944Z,10.83
2023-01-26T13:38:34.703Z,11.17
2023-01-26T13:41:22.882Z,8.67
2023-01-26T13:44:12.280Z,10.13
2023-01-26T13:47:01.708Z,9.40
2023-01-26T13:49:50.931Z,10.33
2023-01-26T13:52:44.079Z,11.70
2023-01-26T13:55:32.501Z,8.80
2023-01-26T13:58:20.561Z,9.90
2023-01-26T14:01:12.538Z,6.97
2023-01-26T14:04:07.059Z,9.70
2023-01-26T14:06:57.414Z,7.00
2023-01-26T14:09:46.911Z,8.07
2023-01-26T14:12:36.631Z,7.77
2023-01-26T14:15:25.422Z,8.10
2023-01-26T14:18:21.264Z,7.17
2023-01-26T14:21:20.762Z,7.13
2023-01-26T14:24:11.756Z,9.37
2023-01-26T14:26:59.368Z,8.30
2023-01-26T14:29:47.629Z,10.03
2023-01-26T14:32:35.398Z,7.90
2023-01-26T14:35:23.895Z,10.73
2023-01-26T14:38:16.419Z,9.20
2023-01-26T14:41:05.194Z,11.37
2023-01-26T14:43:56.065Z,10.40
2023-01-26T14:46:51.077Z,7.93
2023-01-26T14:49:43.156Z,7.70
2023-01-26T14:52:31.833Z,10.80
2023-01-26T14:55:22.490Z,11.50
2023-01-26T14:58:17.460Z,12.40
2023-01-26T15:01:05.285Z,12.33
2023-01-26T15:03:53.067Z,10.57
2023-01-26T15:06:40.847Z,10.57
2023-01-26T15:09:29.398Z,12.03
2023-01-26T15:12:18.832Z,11.77
2023-01-26T15:15:14.798Z,11.47
2023-01-26T15:18:03.341Z,13.90
2023-01-26T15:21:00.546Z,12.70
2023-01-26T15:23:51.477Z,15.10
2023-01-26T15:26:39.017Z,16.27
2023-01-26T15:29:27.701Z,14.20
2023-01-26T15:32:29.797Z,12.93
2023-01-26T15:35:21.816Z,14.43
2023-01-26T15:38:11.776Z,12.90
2023-01-26T15:40:59.359Z,16.80
2023-01-26T15:43:46.855Z,11.50
2023-01-26T15:46:34.456Z,17.07
2023-01-26T15:49:23.450Z,18.60
2023-01-26T15:52:11.618Z,16.97
2023-01-26T15:54:59.200Z,17.47
2023-01-26T15:57:46.556Z,18.83
2023-01-26T16:00:33.972Z,14.90
2023-01-26T16:03:22.501Z,12.73
2023-01-26T16:06:15.707Z,14.37
2023-01-26T16:09:02.971Z,19.03
2023-01-26T16:11:51.642Z,30.43
2023-01-26T16:14:39.367Z,19.87
2023-01-26T16:17:26.557Z,14.53
2023-01-26T16:20:14.444Z,19.70
2023-01-26T16:23:03.670Z,18.40
2023-01-26T16:25:51.863Z,19.07
2023-01-26T16:28:39.286Z,16.87
2023-01-26T16:31:27.821Z,16.87
2023-01-26T16:34:15.382Z,16.63
2023-01-26T16:37:02.788Z,20.40
2023-01-26T16:39:51.627Z,16.37
2023-01-26T16:42:41.586Z,17.70
2023-01-26T16:45:28.921Z,18.90
2023-01-26T16:48:17.139Z,17.70
2023-01-26T16:51:13.582Z,18.73
2023-01-26T16:54:01.261Z,18.27
2023-01-26T16:56:50.217Z,17.60
2023-01-26T16:59:37.560Z,18.87
2023-01-26T17:02:26.482Z,17.30
2023-01-26T17:05:17.828Z,19.03
2023-01-26T17:08:05.485Z,20.77
2023-01-26T17:11:02.090Z,17.67
2023-01-26T17:13:51.946Z,18.33
2023-01-26T17:16:39.583Z,22.53
2023-01-26T17:19:26.972Z,20.80
2023-01-26T17:22:15.242Z,20.00
2023-01-26T17:25:02.565Z,18.37
2023-01-26T17:27:50.057Z,21.00
2023-01-26T17:30:38.814Z,20.87
2023-01-26T17:33:26.466Z,22.97
2023-01-26T17:36:14.067Z,23.47
2023-01-26T17:39:01.389Z,20.33
2023-01-26T17:41:48.712Z,22.10
2023-01-26T17:44:36.110Z,21.90
2023-01-26T17:47:25.272Z,27.53
2023-01-26T17:50:13.203Z,23.03
2023-01-26T17:53:00.566Z,18.57
2023-01-26T17:55:48.040Z,24.50
2023-01-26T17:58:35.460Z,18.67
2023-01-26T18:01:23.964Z,14.70
2023-01-26T18:04:12.753Z,22.50
2023-01-26T18:07:01.780Z,18.67
2023-01-26T18:09:49.042Z,22.63
2023-01-26T18:12:37.640Z,21.97
2023-01-26T18:15:25.398Z,21.57
2023-01-26T18:18:13.682Z,24.57
2023-01-26T18:21:12.810Z,20.87
2023-01-26T18:24:01.671Z,18.60
2023-01-26T18:26:49.018Z,17.47
2023-01-26T18:29:36.467Z,24.30
2023-01-26T18:32:24.004Z,22.47
2023-01-26T18:35:12.637Z,17.10
2023-01-26T18:38:02.030Z,21.80
2023-01-26T18:40:49.820Z,23.20
2023-01-26T18:43:37.205Z,25.00
2023-01-26T18:46:24.662Z,26.20
2023-01-26T18:49:12.359Z,26.90
2023-01-26T18:51:59.892Z,20.67
2023-01-26T18:54:48.627Z,20.23
2023-01-26T18:57:36.385Z,22.27
2023-01-26T19:00:24.128Z,20.23
2023-01-26T19:03:11.387Z,24.03
2023-01-26T19:05:58.680Z,26.53
2023-01-26T19:08:46.586Z,24.50
2023-01-26T19:11:35.979Z,22.67
2023-01-26T19:14:23.393Z,22.50
2023-01-26T19:17:10.752Z,21.10
2023-01-26T19:19:58.195Z,22.90
2023-01-26T19:22:53.746Z,20.13
2023-01-26T19:25:41.030Z,30.90
2023-01-26T19:28:29.647Z,20.97
2023-01-26T19:31:19.711Z,21.83
2023-01-26T19:34:08.073Z,24.17
2023-01-26T19:36:55.799Z,18.00
2023-01-26T19:39:43.094Z,26.07
2023-01-26T19:42:30.273Z,23.70
2023-01-26T19:45:19.029Z,21.10
2023-01-26T19:48:06.706Z,21.23
2023-01-26T19:51:01.185Z,21.77
2023-01-26T19:53:49.481Z,22.00
2023-01-26T19:56:37.127Z,16.80
2023-01-26T19:59:25.972Z,24.43
2023-01-26T20:02:15.003Z,25.23
2023-01-26T20:05:02.623Z,22.67
2023-01-26T20:07:50.159Z,22.53
2023-01-26T20:10:37.479Z,21.30
2023-01-26T20:13:25.102Z,17.50
2023-01-26T20:16:13.761Z,18.17
2023-01-26T20:19:02.977Z,17.20
2023-01-26T20:21:50.929Z,21.50
2023-01-26T20:24:38.129Z,17.13
2023-01-26T20:27:25.891Z,20.30
2023-01-26T20:30:14.768Z,20.07
2023-01-26T20:33:03.183Z,20.07
2023-01-26T20:35:51.967Z,20.27
2023-01-26T20:38:39.741Z,18.97
2023-01-26T20:41:28.226Z,19.03
2023-01-26T20:44:15.701Z,22.20
2023-01-26T20:47:04.699Z,14.17
2023-01-26T20:49:56.865Z,22.43
2023-01-26T20:52:46.629Z,18.77
2023-01-26T20:55:34.235Z,21.80
2023-01-26T20:58:22.005Z,18.13
2023-01-26T21:01:10.450Z,16.63
2023-01-26T21:03:58.160Z,15.77
2023-01-26T21:06:45.513Z,16.93
2023-01-26T21:09:34.377Z,19.43
2023-01-26T21:12:21.726Z,12.97
2023-01-26T21:15:09.772Z,13.57
2023-01-26T21:17:57.255Z,14.47
2023-01-26T21:20:44.761Z,14.47
2023-01-26T21:23:32.450Z,16.27
2023-01-26T21:26:22.405Z,16.90
2023-01-26T21:29:14.095Z,20.93
2023-01-26T21:32:01.564Z,16.57
2023-01-26T21:34:48.916Z,14.07
2023-01-26T21:37:36.250Z,12.93
2023-01-26T21:40:23.779Z,10.57
2023-01-26T21:43:12.441Z,18.77
2023-01-26T21:46:00.578Z,13.93
2023-01-26T21:48:47.805Z,14.80
2023-01-26T21:51:53.735Z,15.80
2023-01-26T21:54:41.367Z,18.70
2023-01-26T21:57:46.226Z,13.07
2023-01-26T22:00:35.117Z,15.70
2023-01-26T22:03:22.732Z,18.03
2023-01-26T22:06:10.413Z,18.83
2023-01-26T22:08:58.456Z,12.23
2023-01-26T22:11:45.930Z,13.80
2023-01-26T22:14:33.545Z,12.57
2023-01-26T22:17:22.645Z,14.83
2023-01-26T22:20:12.187Z,15.10
2023-01-26T22:22:59.910Z,10.40
2023-01-26T22:25:47.349Z,11.60
2023-01-26T22:28:34.890Z,13.47
2023-01-26T22:31:23.572Z,8.40
2023-01-26T22:34:12.507Z,11.30
2023-01-26T22:37:00.194Z,10.57
2023-01-26T22:39:49.007Z,9.40
2023-01-26T22:42:36.707Z,8.33
2023-01-26T22:45:24.008Z,13.40
2023-01-26T22:48:11.412Z,8.80
2023-01-26T22:51:00.616Z,10.30
2023-01-26T22:53:48.122Z,12.17
2023-01-26T22:56:35.576Z,10.17
2023-01-26T22:59:23.084Z,11.60
2023-01-26T23:02:10.602Z,11.63
2023-01-26T23:04:58.207Z,7.83
2023-01-26T23:07:46.878Z,11.07
2023-01-26T23:10:34.552Z,11.47
2023-01-26T23:13:21.926Z,10.10
2023-01-26T23:16:09.744Z,9.40
2023-01-26T23:18:58.423Z,10.50
2023-01-26T23:21:46.139Z,8.30
2023-01-26T23:24:35.065Z,7.83
2023-01-26T23:27:22.793Z,6.33
2023-01-26T23:30:11.114Z,8.50
2023-01-26T23:32:58.854Z,8.70
2023-01-26T23:35:46.402Z,10.27
2023-01-26T23:38:34.313Z,7.53
2023-01-26T23:41:22.998Z,6.57
2023-01-26T23:44:13.065Z,7.37
2023-01-26T23:47:00.613Z,9.40
2023-01-26T23:49:48.393Z,7.40
2023-01-26T23:52:35.845Z,6.73
2023-01-26T23:55:23.164Z,10.23
2023-01-26T23:58:13.095Z,8.37
